createdAt,value
2022-11-05T00:01:02.865Z,98.48
2022-11-05T00:03:48.661Z,99.17
2022-11-05T00:06:34.349Z,98.90
2022-11-05T00:09:19.971Z,99.19
2022-11-05T00:12:05.453Z,98.53
2022-11-05T00:14:51.146Z,98.62
2022-11-05T00:17:18.015Z,98.58
2022-11-05T00:19:44.913Z,99.14
2022-11-05T00:22:30.560Z,98.05
2022-11-05T00:25:16.211Z,99.22
2022-11-05T00:27:52.636Z,98.69
2022-11-05T00:30:25.418Z,98.74
2022-11-05T00:32:53.493Z,99.23
2022-11-05T00:35:22.575Z,98.62
2022-11-05T00:37:50.598Z,98.94
2022-11-05T00:40:18.200Z,98.68
2022-11-05T00:43:03.926Z,99.03
2022-11-05T00:45:31.948Z,98.61
2022-11-05T00:48:19.104Z,98.94
2022-11-05T00:50:46.450Z,98.78
2022-11-05T00:53:13.809Z,99.27
2022-11-05T00:55:46.299Z,99.06
2022-11-05T00:58:17.223Z,99.26
2022-11-05T01:00:53.301Z,98.77
2022-11-05T01:03:23.702Z,99.01
2022-11-05T01:06:09.902Z,99.28
2022-11-05T01:08:37.388Z,99.30
2022-11-05T01:11:36.840Z,99.08
2022-11-05T01:14:10.518Z,98.84
2022-11-05T01:16:39.699Z,98.88
2022-11-05T01:19:09.538Z,99.66
2022-11-05T01:21:36.874Z,99.25
2022-11-05T01:24:04.464Z,99.71
2022-11-05T01:26:31.375Z,99.01
2022-11-05T01:29:02.066Z,99.02
2022-11-05T01:31:29.101Z,99.05
2022-11-05T01:33:56.078Z,99.13
2022-11-05T01:36:22.949Z,99.11
2022-11-05T01:38:49.832Z,99.83
2022-11-05T01:41:16.720Z,98.76
2022-11-05T01:43:56.926Z,98.77
2022-11-05T01:46:50.109Z,98.92
2022-11-05T01:49:32.042Z,99.15
2022-11-05T01:52:03.519Z,99.45
2022-11-05T01:54:32.497Z,99.57
2022-11-05T01:57:08.521Z,99.35
2022-11-05T01:59:44.396Z,99.02
2022-11-05T02:02:11.515Z,99.80
2022-11-05T02:04:59.178Z,99.09
2022-11-05T02:07:28.439Z,99.30
2022-11-05T02:10:13.793Z,99.58
2022-11-05T02:12:45.860Z,99.53
2022-11-05T02:15:36.803Z,99.38
2022-11-05T02:18:06.457Z,99.62
2022-11-05T02:20:40.816Z,99.04
2022-11-05T02:23:40.676Z,99.74
2022-11-05T02:26:37.643Z,99.02
2022-11-05T02:29:25.788Z,99.28
2022-11-05T02:32:13.798Z,99.49
2022-11-05T02:35:17.670Z,99.69
2022-11-05T02:37:54.434Z,99.60
2022-11-05T02:40:53.691Z,99.82
2022-11-05T02:43:53.898Z,99.00
2022-11-05T02:46:32.782Z,99.27
2022-11-05T02:49:32.101Z,99.50
2022-11-05T02:52:09.770Z,99.72
2022-11-05T02:54:57.862Z,99.75
2022-11-05T02:57:24.803Z,99.87
2022-11-05T03:00:03.994Z,99.84
2022-11-05T03:02:31.167Z,99.26
2022-11-05T03:04:59.512Z,99.51
2022-11-05T03:07:59.455Z,99.93
2022-11-05T03:10:38.117Z,99.89
2022-11-05T03:13:17.597Z,99.93
2022-11-05T03:15:57.483Z,99.19
2022-11-05T03:18:47.675Z,99.25
2022-11-05T03:21:42.106Z,99.61
2022-11-05T03:24:18.680Z,99.90
2022-11-05T03:27:02.720Z,99.52
2022-11-05T03:29:41.562Z,99.93
2022-11-05T03:32:10.503Z,99.69
2022-11-05T03:34:44.526Z,99.51
2022-11-05T03:37:12.121Z,99.88
2022-11-05T03:39:52.274Z,99.70
2022-11-05T03:42:26.287Z,99.63
2022-11-05T03:44:57.558Z,99.60
2022-11-05T03:47:34.477Z,99.86
2022-11-05T03:50:18.034Z,99.01
2022-11-05T03:52:53.847Z,99.38
2022-11-05T03:55:28.328Z,99.49
2022-11-05T03:57:58.233Z,99.11
2022-11-05T04:00:25.403Z,99.59
2022-11-05T04:02:52.403Z,99.69
2022-11-05T04:05:19.495Z,100.00
2022-11-05T04:08:14.509Z,99.80
2022-11-05T04:11:04.648Z,100.00
2022-11-05T04:13:33.156Z,99.14
2022-11-05T04:16:35.629Z,99.30
2022-11-05T04:19:02.652Z,99.40
2022-11-05T04:21:47.947Z,100.00
2022-11-05T04:24:14.863Z,99.15
2022-11-05T04:26:44.125Z,99.38
2022-11-05T04:29:30.596Z,100.00
2022-11-05T04:31:57.491Z,99.21
2022-11-05T04:34:24.521Z,99.87
2022-11-05T04:36:53.936Z,100.00
2022-11-05T04:39:21.519Z,99.48
2022-11-05T04:41:49.014Z,99.75
2022-11-05T04:44:17.102Z,100.00
2022-11-05T04:46:44.268Z,99.46
2022-11-05T04:49:11.183Z,100.00
2022-11-05T04:51:38.116Z,99.96
2022-11-05T04:54:05.044Z,99.51
2022-11-05T04:56:32.126Z,99.84
2022-11-05T04:58:59.068Z,100.00
2022-11-05T05:01:26.066Z,99.60
2022-11-05T05:03:54.587Z,100.00
2022-11-05T05:06:22.464Z,99.93
2022-11-05T05:08:51.064Z,99.75
2022-11-05T05:11:21.463Z,99.52
2022-11-05T05:13:49.637Z,100.00
2022-11-05T05:16:27.431Z,99.26
2022-11-05T05:18:55.013Z,99.39
2022-11-05T05:21:38.859Z,99.52
2022-11-05T05:24:08.779Z,99.77
2022-11-05T05:26:41.724Z,99.53
2022-11-05T05:29:10.633Z,99.20
2022-11-05T05:31:38.105Z,99.85
2022-11-05T05:34:06.991Z,100.00
2022-11-05T05:36:34.574Z,100.00
2022-11-05T05:39:01.640Z,99.83
2022-11-05T05:41:28.707Z,99.59
2022-11-05T05:43:55.642Z,100.00
2022-11-05T05:46:22.579Z,100.00
2022-11-05T05:48:52.964Z,99.76
2022-11-05T05:51:20.041Z,100.00
2022-11-05T05:53:47.031Z,99.97
2022-11-05T05:56:20.359Z,100.00
2022-11-05T05:58:48.164Z,99.79
2022-11-05T06:01:19.725Z,100.00
2022-11-05T06:03:48.559Z,100.00
2022-11-05T06:06:21.054Z,100.00
2022-11-05T06:08:48.970Z,99.98
2022-11-05T06:11:16.107Z,100.00
2022-11-05T06:13:43.063Z,100.00
2022-11-05T06:16:11.136Z,100.00
2022-11-05T06:18:38.678Z,100.00
2022-11-05T06:21:08.913Z,100.00
2022-11-05T06:23:37.965Z,99.74
2022-11-05T06:26:09.242Z,100.00
2022-11-05T06:28:36.749Z,99.99
2022-11-05T06:31:04.891Z,99.67
2022-11-05T06:33:32.018Z,100.00
2022-11-05T06:35:59.850Z,99.67
2022-11-05T06:38:27.317Z,100.00
2022-11-05T06:40:54.180Z,100.00
2022-11-05T06:43:21.048Z,99.80
2022-11-05T06:45:47.919Z,99.61
2022-11-05T06:48:14.790Z,100.00
2022-11-05T06:50:45.696Z,100.00
2022-11-05T06:53:13.918Z,100.00
2022-11-05T06:55:41.394Z,100.00
2022-11-05T06:58:08.348Z,100.00
2022-11-05T07:00:35.363Z,100.00
2022-11-05T07:03:10.964Z,99.95
2022-11-05T07:05:45.891Z,100.00
2022-11-05T07:08:12.795Z,100.00
2022-11-05T07:10:39.727Z,99.71
2022-11-05T07:13:08.346Z,100.00
2022-11-05T07:15:36.826Z,99.72
2022-11-05T07:18:07.118Z,100.00
2022-11-05T07:20:34.704Z,100.00
2022-11-05T07:23:08.204Z,99.98
2022-11-05T07:25:35.999Z,99.71
2022-11-05T07:28:04.285Z,100.00
2022-11-05T07:30:33.417Z,100.00
2022-11-05T07:33:00.571Z,100.00
2022-11-05T07:35:28.028Z,99.99
2022-11-05T07:37:55.622Z,100.00
2022-11-05T07:40:25.704Z,99.91
2022-11-05T07:42:57.211Z,99.98
2022-11-05T07:45:25.470Z,99.58
2022-11-05T07:48:01.481Z,99.60
2022-11-05T07:50:35.142Z,99.81
2022-11-05T07:53:13.087Z,100.00
2022-11-05T07:55:45.873Z,100.00
2022-11-05T07:58:13.399Z,99.62
2022-11-05T08:00:40.661Z,99.71
2022-11-05T08:03:16.955Z,100.00
2022-11-05T08:05:47.341Z,100.00
2022-11-05T08:08:19.097Z,99.96
2022-11-05T08:10:46.610Z,100.00
2022-11-05T08:13:15.066Z,100.00
2022-11-05T08:15:43.178Z,100.00
2022-11-05T08:18:16.806Z,99.93
2022-11-05T08:20:45.304Z,100.00
2022-11-05T08:23:12.815Z,100.00
2022-11-05T08:25:40.922Z,100.00
2022-11-05T08:28:11.675Z,99.98
2022-11-05T08:30:38.611Z,99.93
2022-11-05T08:33:12.931Z,99.89
2022-11-05T08:35:40.905Z,100.00
2022-11-05T08:38:13.443Z,100.00
2022-11-05T08:40:41.582Z,100.00
2022-11-05T08:43:10.741Z,100.00
2022-11-05T08:45:38.724Z,100.00
2022-11-05T08:48:15.248Z,100.00
2022-11-05T08:50:44.042Z,100.00
2022-11-05T08:53:12.244Z,100.00
2022-11-05T08:55:39.428Z,100.00
2022-11-05T08:58:12.478Z,100.00
2022-11-05T09:00:40.783Z,99.76
2022-11-05T09:03:09.985Z,100.00
2022-11-05T09:05:39.460Z,100.00
2022-11-05T09:08:09.909Z,100.00
2022-11-05T09:10:37.274Z,99.81
2022-11-05T09:13:04.963Z,100.00
2022-11-05T09:15:32.308Z,100.00
2022-11-05T09:17:59.751Z,100.00
2022-11-05T09:20:26.677Z,99.35
2022-11-05T09:22:54.013Z,100.00
2022-11-05T09:25:20.970Z,100.00
2022-11-05T09:27:47.850Z,100.00
2022-11-05T09:30:15.010Z,99.47
2022-11-05T09:32:42.173Z,99.94
2022-11-05T09:35:09.781Z,100.00
2022-11-05T09:37:38.100Z,99.07
2022-11-05T09:40:06.173Z,99.85
2022-11-05T09:42:41.017Z,99.33
2022-11-05T09:45:18.387Z,98.14
2022-11-05T09:48:00.296Z,97.90
2022-11-05T09:50:37.559Z,99.19
2022-11-05T09:53:05.828Z,99.27
2022-11-05T09:55:42.066Z,98.66
2022-11-05T09:58:43.676Z,98.89
2022-11-05T10:01:26.049Z,98.33
2022-11-05T10:03:58.273Z,97.84
2022-11-05T10:06:26.946Z,98.03
2022-11-05T10:09:18.070Z,98.56
2022-11-05T10:11:51.786Z,98.34
2022-11-05T10:14:31.309Z,99.52
2022-11-05T10:17:11.711Z,96.60
2022-11-05T10:20:11.234Z,97.71
2022-11-05T10:22:39.035Z,97.43
2022-11-05T10:25:18.545Z,97.24
2022-11-05T10:27:55.465Z,97.07
2022-11-05T10:30:22.917Z,97.09
2022-11-05T10:32:55.837Z,95.85
2022-11-05T10:35:25.784Z,96.63
2022-11-05T10:37:55.977Z,95.26
2022-11-05T10:40:37.507Z,96.46
2022-11-05T10:43:17.749Z,95.28
2022-11-05T10:46:36.075Z,95.91
2022-11-05T10:49:30.615Z,95.18
2022-11-05T10:51:59.071Z,96.86
2022-11-05T10:54:34.114Z,95.35
2022-11-05T10:57:01.046Z,96.22
2022-11-05T10:59:29.947Z,95.19
2022-11-05T11:02:08.262Z,95.25
2022-11-05T11:04:38.136Z,93.93
2022-11-05T11:07:05.576Z,92.02
2022-11-05T11:09:36.134Z,94.65
2022-11-05T11:12:15.623Z,93.82
2022-11-05T11:14:42.795Z,95.64
2022-11-05T11:17:29.705Z,95.06
2022-11-05T11:20:31.302Z,94.49
2022-11-05T11:23:15.569Z,93.86
2022-11-05T11:25:50.062Z,93.75
2022-11-05T11:28:23.696Z,94.15
2022-11-05T11:31:11.598Z,94.95
2022-11-05T11:33:42.544Z,94.13
2022-11-05T11:36:12.230Z,93.58
2022-11-05T11:38:40.174Z,93.26
2022-11-05T11:41:32.238Z,91.09
2022-11-05T11:44:18.985Z,93.34
2022-11-05T11:46:56.870Z,95.45
2022-11-05T11:49:40.031Z,93.38
2022-11-05T11:52:15.898Z,94.07
2022-11-05T11:54:43.437Z,92.80
2022-11-05T11:57:29.978Z,93.89
2022-11-05T12:00:08.860Z,94.25
2022-11-05T12:03:12.036Z,93.21
2022-11-05T12:06:16.326Z,93.53
2022-11-05T12:09:17.775Z,94.42
2022-11-05T12:12:05.463Z,92.72
2022-11-05T12:14:48.866Z,95.54
2022-11-05T12:17:46.047Z,95.18
2022-11-05T12:20:59.005Z,92.11
2022-11-05T12:24:00.119Z,94.15
2022-11-05T12:26:37.456Z,93.90
2022-11-05T12:29:42.738Z,92.38
2022-11-05T12:32:37.520Z,94.95
2022-11-05T12:35:34.911Z,93.00
2022-11-05T12:38:22.390Z,94.34
2022-11-05T12:41:07.292Z,92.98
2022-11-05T12:44:01.836Z,92.36
2022-11-05T12:46:39.193Z,92.57
2022-11-05T12:49:24.131Z,90.54
2022-11-05T12:52:20.554Z,92.91
2022-11-05T12:55:11.547Z,92.44
2022-11-05T12:57:43.287Z,90.94
2022-11-05T13:00:28.351Z,90.20
2022-11-05T13:03:10.149Z,91.55
2022-11-05T13:05:43.588Z,90.04
2022-11-05T13:08:30.670Z,92.23
2022-11-05T13:11:11.892Z,91.03
2022-11-05T13:14:22.746Z,91.04
2022-11-05T13:17:07.659Z,91.02
2022-11-05T13:20:00.751Z,92.74
2022-11-05T13:22:44.662Z,92.18
2022-11-05T13:25:26.569Z,89.52
2022-11-05T13:28:19.414Z,89.19
2022-11-05T13:30:55.261Z,92.45
2022-11-05T13:33:48.010Z,89.27
2022-11-05T13:36:44.265Z,90.00
2022-11-05T13:39:30.679Z,91.89
2022-11-05T13:42:45.134Z,92.41
2022-11-05T13:45:51.344Z,91.46
2022-11-05T13:48:50.893Z,90.68
2022-11-05T13:51:40.226Z,91.47
2022-11-05T13:54:45.299Z,91.17
2022-11-05T13:57:40.646Z,90.97
2022-11-05T14:00:24.067Z,90.07
2022-11-05T14:03:01.742Z,89.19
2022-11-05T14:05:37.349Z,89.81
2022-11-05T14:08:17.749Z,91.51
2022-11-05T14:11:00.499Z,93.02
2022-11-05T14:13:38.008Z,91.81
2022-11-05T14:16:08.954Z,89.81
2022-11-05T14:18:37.208Z,90.10
2022-11-05T14:21:06.829Z,88.96
2022-11-05T14:23:39.927Z,92.59
2022-11-05T14:26:14.414Z,92.01
2022-11-05T14:28:49.224Z,89.37
2022-11-05T14:31:19.044Z,89.34
2022-11-05T14:34:17.112Z,91.88
2022-11-05T14:37:11.047Z,91.82
2022-11-05T14:39:39.360Z,91.20
2022-11-05T14:42:30.489Z,90.49
2022-11-05T14:45:39.625Z,90.09
2022-11-05T14:48:38.051Z,90.18
2022-11-05T14:51:26.859Z,92.76
2022-11-05T14:54:07.044Z,90.45
2022-11-05T14:56:50.510Z,90.57
2022-11-05T14:59:34.193Z,90.52
2022-11-05T15:02:02.276Z,89.98
2022-11-05T15:04:33.101Z,89.29
2022-11-05T15:07:03.139Z,91.86
2022-11-05T15:09:46.618Z,88.79
2022-11-05T15:12:33.114Z,90.88
2022-11-05T15:15:22.000Z,90.67
2022-11-05T15:18:00.486Z,91.29
2022-11-05T15:20:55.028Z,93.57
2022-11-05T15:23:26.323Z,91.38
2022-11-05T15:26:31.298Z,92.59
2022-11-05T15:28:58.415Z,91.93
2022-11-05T15:31:36.389Z,92.31
2022-11-05T15:34:17.922Z,91.25
2022-11-05T15:37:18.434Z,91.56
2022-11-05T15:39:48.648Z,91.61
2022-11-05T15:42:25.335Z,90.03
2022-11-05T15:45:00.035Z,90.50
2022-11-05T15:47:29.136Z,90.17
2022-11-05T15:50:02.075Z,92.81
2022-11-05T15:52:36.323Z,94.30
2022-11-05T15:55:19.905Z,92.11
2022-11-05T15:58:00.215Z,93.61
2022-11-05T16:00:30.644Z,93.04
2022-11-05T16:03:18.514Z,92.17
2022-11-05T16:05:48.160Z,89.56
2022-11-05T16:08:28.386Z,93.99
2022-11-05T16:10:59.510Z,92.90
2022-11-05T16:13:39.739Z,91.26
2022-11-05T16:16:32.050Z,91.68
2022-11-05T16:18:59.205Z,91.40
2022-11-05T16:21:26.134Z,93.49
2022-11-05T16:23:56.593Z,93.06
2022-11-05T16:29:33.621Z,94.84
2022-11-05T16:32:04.752Z,95.00
2022-11-05T16:34:41.469Z,93.13
2022-11-05T16:37:14.856Z,92.06
2022-11-05T16:39:42.324Z,94.81
2022-11-05T16:42:26.913Z,91.95
2022-11-05T16:44:55.496Z,93.11
2022-11-05T16:47:23.403Z,91.07
2022-11-05T16:49:50.927Z,92.93
2022-11-05T16:52:18.516Z,93.24
2022-11-05T16:54:45.456Z,92.99
2022-11-05T16:57:28.293Z,93.72
2022-11-05T16:59:57.002Z,93.74
2022-11-05T17:02:24.118Z,94.78
2022-11-05T17:04:51.293Z,93.06
2022-11-05T17:07:18.314Z,94.43
2022-11-05T17:09:45.348Z,92.09
2022-11-05T17:12:13.092Z,94.34
2022-11-05T17:14:40.129Z,94.09
2022-11-05T17:17:07.502Z,93.16
2022-11-05T17:19:34.525Z,93.97
2022-11-05T17:22:01.427Z,95.30
2022-11-05T17:24:28.289Z,94.38
2022-11-05T17:26:55.160Z,94.75
2022-11-05T17:29:22.027Z,94.27
2022-11-05T17:31:49.033Z,93.15
2022-11-05T17:34:16.004Z,95.06
2022-11-05T17:36:42.954Z,93.51
2022-11-05T17:39:10.898Z,93.34
2022-11-05T17:41:37.761Z,93.22
2022-11-05T17:44:04.708Z,94.22
2022-11-05T17:46:31.830Z,95.26
2022-11-05T17:48:58.710Z,94.04
2022-11-05T17:51:25.610Z,93.42
2022-11-05T17:53:52.556Z,93.55
2022-11-05T17:56:32.238Z,93.23
2022-11-05T17:59:02.527Z,94.94
2022-11-05T18:01:33.095Z,93.02
2022-11-05T18:04:05.399Z,93.62
2022-11-05T18:06:39.378Z,94.43
2022-11-05T18:09:09.063Z,93.17
2022-11-05T18:11:36.980Z,94.24
2022-11-05T18:14:04.615Z,94.46
2022-11-05T18:16:32.646Z,96.37
2022-11-05T18:18:59.522Z,94.43
2022-11-05T18:21:26.627Z,94.39
2022-11-05T18:23:53.561Z,94.51
2022-11-05T18:26:21.002Z,94.73
2022-11-05T18:28:47.893Z,94.14
2022-11-05T18:31:20.441Z,93.81
2022-11-05T18:33:49.862Z,94.27
2022-11-05T18:36:22.852Z,94.44
2022-11-05T18:38:50.676Z,93.91
2022-11-05T18:41:18.790Z,94.89
2022-11-05T18:43:45.927Z,94.71
2022-11-05T18:46:35.856Z,93.06
2022-11-05T18:49:00.688Z,95.26
2022-11-05T18:51:28.177Z,95.14
2022-11-05T18:53:55.860Z,94.12
2022-11-05T18:56:23.649Z,93.66
2022-11-05T18:59:03.317Z,93.41
2022-11-05T19:01:39.589Z,92.83
2022-11-05T19:04:06.584Z,94.41
2022-11-05T19:06:34.938Z,94.33
2022-11-05T19:09:02.331Z,94.85
2022-11-05T19:11:29.477Z,92.96
2022-11-05T19:13:56.371Z,93.82
2022-11-05T19:16:27.838Z,94.23
2022-11-05T19:18:57.508Z,94.40
2022-11-05T19:21:26.332Z,93.51
2022-11-05T19:23:53.948Z,94.60
2022-11-05T19:26:28.377Z,93.54
2022-11-05T19:28:58.972Z,93.34
2022-11-05T19:31:26.028Z,93.15
2022-11-05T19:33:54.217Z,92.74
2022-11-05T19:36:23.700Z,93.22
2022-11-05T19:38:57.430Z,94.02
2022-11-05T19:41:26.142Z,93.92
2022-11-05T19:43:54.301Z,94.56
2022-11-05T19:46:23.365Z,93.41
2022-11-05T19:48:51.180Z,92.95
2022-11-05T19:51:25.935Z,93.01
2022-11-05T19:53:54.940Z,93.56
2022-11-05T19:56:25.526Z,94.52
2022-11-05T19:58:53.553Z,93.23
2022-11-05T20:01:22.965Z,92.92
2022-11-05T20:03:51.338Z,92.98
2022-11-05T20:06:22.509Z,94.02
2022-11-05T20:11:37.739Z,93.64
2022-11-05T20:14:06.092Z,93.62
2022-11-05T20:16:42.189Z,92.75
2022-11-05T20:19:14.183Z,93.65
2022-11-05T20:21:41.697Z,91.80
2022-11-05T20:24:09.766Z,92.34
2022-11-05T20:26:36.662Z,93.23
2022-11-05T20:29:03.714Z,91.43
2022-11-05T20:31:31.036Z,92.80
2022-11-05T20:33:58.146Z,93.82
2022-11-05T20:36:26.158Z,92.23
2022-11-05T20:38:58.176Z,93.61
2022-11-05T20:41:26.593Z,93.06
2022-11-05T20:43:54.284Z,91.71
2022-11-05T20:46:22.732Z,93.04
2022-11-05T20:48:50.569Z,92.86
2022-11-05T20:51:21.327Z,91.48
2022-11-05T20:53:49.194Z,91.44
2022-11-05T20:56:19.742Z,92.83
2022-11-05T20:58:47.322Z,92.73
2022-11-05T21:01:16.413Z,91.46
2022-11-05T21:03:45.001Z,94.59
2022-11-05T21:06:12.683Z,92.48
2022-11-05T21:08:40.134Z,92.78
2022-11-05T21:11:08.103Z,92.78
2022-11-05T21:13:35.878Z,92.42
2022-11-05T21:16:06.287Z,92.51
2022-11-05T21:18:36.365Z,91.64
2022-11-05T21:21:09.810Z,93.13
2022-11-05T21:23:36.815Z,93.96
2022-11-05T21:26:09.285Z,93.57
2022-11-05T21:28:39.610Z,92.21
2022-11-05T21:31:07.831Z,92.88
2022-11-05T21:33:35.110Z,93.69
2022-11-05T21:36:09.189Z,93.16
2022-11-05T21:38:36.416Z,93.33
2022-11-05T21:41:04.849Z,92.67
2022-11-05T21:43:31.862Z,91.37
2022-11-05T21:46:02.765Z,91.70
2022-11-05T21:48:30.543Z,93.43
2022-11-05T21:51:16.000Z,93.42
2022-11-05T21:54:01.470Z,92.10
2022-11-05T21:56:47.912Z,92.89
2022-11-05T21:59:36.662Z,92.98
2022-11-05T22:02:04.352Z,93.25
2022-11-05T22:04:34.375Z,91.78
2022-11-05T22:07:01.815Z,92.79
2022-11-05T22:09:29.379Z,92.03
2022-11-05T22:11:56.318Z,92.99
2022-11-05T22:14:24.329Z,92.79
2022-11-05T22:16:51.433Z,93.82
2022-11-05T22:19:18.547Z,93.31
2022-11-05T22:21:45.528Z,93.19
2022-11-05T22:24:12.753Z,92.23
2022-11-05T22:26:41.274Z,92.29
2022-11-05T22:29:08.969Z,94.41
2022-11-05T22:31:36.792Z,93.11
2022-11-05T22:34:05.421Z,92.85
2022-11-05T22:36:34.266Z,92.27
2022-11-05T22:39:01.917Z,92.85
2022-11-05T22:41:29.411Z,90.79
2022-11-05T22:43:56.701Z,93.05
2022-11-05T22:46:25.849Z,91.73
2022-11-05T22:48:53.202Z,93.06
2022-11-05T22:51:27.450Z,93.90
2022-11-05T22:53:55.054Z,92.53
2022-11-05T22:56:26.876Z,93.59
2022-11-05T22:58:54.430Z,92.81
2022-11-05T23:01:23.275Z,92.31
2022-11-05T23:03:53.109Z,91.83
2022-11-05T23:06:48.590Z,92.56
2022-11-05T23:09:44.272Z,92.35
2022-11-05T23:12:32.014Z,93.05
2022-11-05T23:15:01.440Z,92.54
2022-11-05T23:17:47.282Z,93.07
2022-11-05T23:20:40.209Z,92.23
2022-11-05T23:23:30.647Z,92.98
2022-11-05T23:26:21.743Z,92.43
2022-11-05T23:28:48.587Z,94.16
2022-11-05T23:31:34.203Z,92.32
2022-11-05T23:34:01.071Z,92.79
2022-11-05T23:36:46.411Z,92.86
2022-11-05T23:39:13.295Z,93.59
2022-11-05T23:41:58.622Z,93.58
2022-11-05T23:44:44.146Z,93.47
2022-11-05T23:47:29.699Z,93.90
2022-11-05T23:49:56.569Z,94.09
2022-11-05T23:52:23.431Z,93.24
2022-11-05T23:54:50.301Z,92.22
2022-11-05T23:57:17.158Z,93.16
2022-11-05T23:59:44.040Z,93.30
